Time;durP1;ratioP1;P1;durP2;ratioP2;P2;SDS_P1;SDS_P2;PMS_P1;PMS_P2;Temp;Humidity;BMP_temperature;BMP_pressure;BME280_temperature;BME280_humidity;BME280_pressure;Samples;Min_cycle;Max_cycle;Signal;HPM_P1;HPM_P2
2022/12/26 00:00:08;;;;;;;0.82;0.60;;;11.30;99.90;;;;;;5075835;28;20498;-58
2022/12/26 00:02:35;;;;;;;1.40;0.70;;;11.30;99.90;;;;;;5076066;28;20754;-59
2022/12/26 00:05:02;;;;;;;0.88;0.60;;;11.20;99.90;;;;;;5075928;28;20425;-58
2022/12/26 00:07:31;;;;;;;0.90;0.60;;;11.20;99.90;;;;;;5076101;28;20423;-58
2022/12/26 00:09:58;;;;;;;1.00;0.60;;;11.10;99.90;;;;;;5076454;28;20553;-59
2022/12/26 00:12:25;;;;;;;1.20;0.60;;;11.10;99.90;;;;;;5077012;28;20422;-59
2022/12/26 00:14:52;;;;;;;0.87;0.50;;;11.10;99.90;;;;;;5076739;28;20455;-58
2022/12/26 00:17:20;;;;;;;0.90;0.50;;;11.10;99.90;;;;;;5075693;28;20423;-58
2022/12/26 00:19:47;;;;;;;1.00;0.60;;;11.00;99.90;;;;;;5076083;28;20892;-58
2022/12/26 00:22:15;;;;;;;1.00;0.60;;;11.00;99.90;;;;;;5076552;28;20516;-58
2022/12/26 00:24:44;;;;;;;1.10;0.60;;;11.00;99.90;;;;;;5077109;28;20426;-58
2022/12/26 00:27:11;;;;;;;1.20;0.70;;;11.00;99.90;;;;;;5075443;28;20490;-58
2022/12/26 00:29:38;;;;;;;1.00;0.60;;;11.00;99.90;;;;;;5076323;28;20518;-60
2022/12/26 00:32:05;;;;;;;0.90;0.60;;;11.00;99.90;;;;;;5077237;28;20527;-58
2022/12/26 00:34:32;;;;;;;2.90;0.63;;;11.00;99.90;;;;;;5075860;28;20793;-58
2022/12/26 00:37:00;;;;;;;1.00;0.60;;;10.90;99.90;;;;;;5076418;28;20433;-60
2022/12/26 00:39:27;;;;;;;1.00;0.60;;;10.90;99.90;;;;;;5076930;28;20430;-60
2022/12/26 00:41:56;;;;;;;0.90;0.60;;;10.80;99.90;;;;;;5076528;28;20530;-60
2022/12/26 00:44:23;;;;;;;0.90;0.60;;;10.70;99.90;;;;;;5074801;28;20534;-61
2022/12/26 00:46:50;;;;;;;1.10;0.60;;;10.70;99.90;;;;;;5076059;28;20696;-61
2022/12/26 00:49:17;;;;;;;0.80;0.60;;;10.60;99.90;;;;;;5075795;28;20445;-60
2022/12/26 00:51:44;;;;;;;1.00;0.60;;;10.60;99.90;;;;;;5076075;28;20522;-60
2022/12/26 00:54:12;;;;;;;1.00;0.60;;;10.50;99.90;;;;;;5074491;28;20774;-59
2022/12/26 00:56:39;;;;;;;1.02;0.60;;;10.50;99.90;;;;;;5075164;28;20526;-59
2022/12/26 00:59:07;;;;;;;0.90;0.55;;;10.50;99.90;;;;;;5074286;28;20931;-59
2022/12/26 01:01:35;;;;;;;1.00;0.60;;;10.40;99.90;;;;;;5074672;28;20734;-60
2022/12/26 01:04:03;;;;;;;1.80;0.60;;;10.40;99.90;;;;;;5074228;28;20542;-60
2022/12/26 01:06:30;;;;;;;0.95;0.60;;;10.40;99.90;;;;;;5074880;28;20842;-60
2022/12/26 01:08:59;;;;;;;1.70;0.60;;;10.40;99.90;;;;;;5074486;28;20523;-59
2022/12/26 01:11:39;;;;;;;1.75;0.60;;;10.40;99.90;;;;;;5075047;28;20427;-60
2022/12/26 01:14:10;;;;;;;0.80;0.60;;;10.30;99.90;;;;;;5074652;28;20427;-59
2022/12/26 01:16:38;;;;;;;0.90;0.60;;;10.30;99.90;;;;;;5075412;28;20894;-58
2022/12/26 01:19:06;;;;;;;1.00;0.60;;;10.40;99.90;;;;;;5073682;28;20447;-61
2022/12/26 01:21:33;;;;;;;0.90;0.60;;;10.40;99.90;;;;;;5074230;28;20466;-61
2022/12/26 01:24:01;;;;;;;0.90;0.60;;;10.30;99.90;;;;;;5072917;28;20426;-60
2022/12/26 01:26:28;;;;;;;1.80;0.60;;;10.40;99.90;;;;;;5074102;28;20839;-59
2022/12/26 01:28:55;;;;;;;1.90;0.60;;;10.50;99.90;;;;;;5073451;28;20478;-60
2022/12/26 01:31:24;;;;;;;0.95;0.50;;;10.50;99.90;;;;;;5073984;28;20522;-60
2022/12/26 01:33:51;;;;;;;1.40;0.90;;;10.50;99.90;;;;;;5073915;28;20522;-60
2022/12/26 01:36:19;;;;;;;1.60;0.70;;;10.50;99.90;;;;;;5075109;28;20510;-60
2022/12/26 01:38:46;;;;;;;1.00;0.50;;;10.50;99.90;;;;;;5074669;28;20451;-60
2022/12/26 01:41:18;;;;;;;0.80;0.57;;;10.50;99.90;;;;;;5073431;28;20914;-60
2022/12/26 01:43:54;;;;;;;1.00;0.50;;;10.50;99.90;;;;;;5074642;28;20415;-59
2022/12/26 01:46:27;;;;;;;0.80;0.50;;;10.60;99.90;;;;;;5074129;28;20514;-59
2022/12/26 01:48:56;;;;;;;1.00;0.50;;;10.50;99.90;;;;;;5074843;28;20526;-60
2022/12/26 01:51:26;;;;;;;0.85;0.57;;;10.60;99.90;;;;;;5074985;28;20531;-59
2022/12/26 01:53:56;;;;;;;1.40;0.60;;;10.60;99.90;;;;;;5074219;28;20885;-60
2022/12/26 01:56:29;;;;;;;1.35;0.57;;;10.60;99.90;;;;;;5075416;28;20427;-59
2022/12/26 01:59:01;;;;;;;0.80;0.50;;;10.60;99.90;;;;;;5074827;28;20422;-59
2022/12/26 02:01:33;;;;;;;1.20;0.50;;;10.60;99.90;;;;;;5075291;28;20726;-59
2022/12/26 02:06:47;;;;;;;0.80;0.50;;;10.70;99.90;;;;;;5075000;28;20868;-59
2022/12/26 02:09:14;;;;;;;1.10;0.50;;;10.70;99.90;;;;;;5074296;28;20734;-59
2022/12/26 02:11:47;;;;;;;1.23;0.60;;;10.70;99.90;;;;;;5074212;28;21013;-60
2022/12/26 02:14:15;;;;;;;0.80;0.50;;;10.70;99.90;;;;;;5074412;28;20546;-59
2022/12/26 02:16:44;;;;;;;0.80;0.50;;;10.70;99.90;;;;;;5074266;28;20466;-58
2022/12/26 02:19:27;;;;;;;0.80;0.50;;;10.70;99.90;;;;;;5075015;28;20498;-59
2022/12/26 02:22:12;;;;;;;0.70;0.50;;;10.70;99.90;;;;;;5074493;28;20526;-59
2022/12/26 02:25:08;;;;;;;0.70;0.50;;;10.70;99.90;;;;;;5075368;28;20533;-59
2022/12/26 02:27:54;;;;;;;0.90;0.50;;;10.70;99.90;;;;;;5074284;28;20496;-59
2022/12/26 02:30:44;;;;;;;1.30;0.60;;;10.70;99.90;;;;;;5074553;28;20453;-59
2022/12/26 02:33:32;;;;;;;0.82;0.50;;;10.70;99.90;;;;;;5069971;28;20514;-60
2022/12/26 02:36:17;;;;;;;0.80;0.45;;;10.70;99.90;;;;;;5074955;28;20900;-60
2022/12/26 02:38:53;;;;;;;0.70;0.50;;;10.80;99.90;;;;;;5074478;28;20498;-60
2022/12/26 02:41:27;;;;;;;1.20;0.50;;;10.80;99.90;;;;;;5074699;28;20937;-59
2022/12/26 02:47:01;;;;;;;1.00;0.57;;;10.80;99.90;;;;;;5076508;28;20515;-60
2022/12/26 02:47:05;;;;;;;0.90;0.50;;;10.80;99.90;;;;;;5079277;28;20831;-61
2022/12/26 03:15:26;;;;;;;0.75;0.50;;;11.10;99.90;;;;;;5077170;28;20410;-60
2022/12/26 03:17:56;;;;;;;0.80;0.60;;;11.20;99.90;;;;;;5076907;28;20911;-60
2022/12/26 03:20:28;;;;;;;1.00;0.57;;;11.20;99.90;;;;;;5077235;28;20415;-59
2022/12/26 03:22:58;;;;;;;0.80;0.50;;;11.20;99.90;;;;;;5076259;28;20499;-60
2022/12/26 03:28:17;;;;;;;0.80;0.50;;;11.20;99.90;;;;;;5074813;28;20565;-60
2022/12/26 03:30:49;;;;;;;2.00;0.50;;;11.30;99.90;;;;;;5075918;28;20518;-60
2022/12/26 03:36:04;;;;;;;0.70;0.50;;;11.10;99.90;;;;;;5075972;28;20410;-60
2022/12/26 03:38:50;;;;;;;0.70;0.40;;;11.10;99.90;;;;;;5076307;28;20427;-60
2022/12/26 04:44:07;;;;;;;0.70;0.50;;;11.60;99.90;;;;;;5076008;28;20387;-60
2022/12/26 04:46:37;;;;;;;0.80;0.40;;;11.60;99.90;;;;;;5076472;28;20444;-59
2022/12/26 04:51:51;;;;;;;1.45;0.50;;;11.60;99.90;;;;;;5075311;28;20415;-59
2022/12/26 04:54:18;;;;;;;0.80;0.50;;;11.60;99.90;;;;;;5073757;28;20424;-60
2022/12/26 04:56:48;;;;;;;1.00;0.50;;;11.60;99.90;;;;;;5073371;28;20724;-60
2022/12/26 04:59:18;;;;;;;0.70;0.50;;;11.50;99.90;;;;;;5072924;28;20823;-60
2022/12/26 05:10:03;;;;;;;0.75;0.40;;;11.40;99.90;;;;;;5074619;28;20434;-61
2022/12/26 05:12:30;;;;;;;0.80;0.50;;;11.40;99.90;;;;;;5075939;28;20514;-60
2022/12/26 05:14:59;;;;;;;0.80;0.50;;;11.40;99.90;;;;;;5074828;28;20558;-62
2022/12/26 05:28:44;;;;;;;0.90;0.60;;;11.30;99.90;;;;;;5057225;28;20490;-60
2022/12/26 05:31:14;;;;;;;0.80;0.50;;;11.20;99.90;;;;;;5075934;28;20561;-59
2022/12/26 05:36:30;;;;;;;0.80;0.50;;;11.10;99.90;;;;;;5075214;28;20706;-60
2022/12/26 05:38:57;;;;;;;0.70;0.50;;;11.20;99.90;;;;;;5075357;28;20872;-60
2022/12/26 05:41:24;;;;;;;0.60;0.50;;;11.20;99.90;;;;;;5075513;28;20525;-60
2022/12/26 05:43:52;;;;;;;1.10;0.50;;;11.20;99.90;;;;;;5075211;28;20499;-59
2022/12/26 05:46:20;;;;;;;1.00;0.50;;;11.20;99.90;;;;;;5074951;28;20902;-59
2022/12/26 05:48:48;;;;;;;0.80;0.50;;;11.30;99.90;;;;;;5074337;28;20415;-59
2022/12/26 05:51:15;;;;;;;0.70;0.50;;;11.30;99.90;;;;;;5074517;28;20877;-58
2022/12/26 05:53:42;;;;;;;1.00;0.40;;;11.30;99.90;;;;;;5074025;28;20470;-58
2022/12/26 05:56:13;;;;;;;0.70;0.50;;;11.30;99.90;;;;;;5073321;28;20945;-59
2022/12/26 05:58:41;;;;;;;0.80;0.47;;;11.40;99.90;;;;;;5074632;28;20491;-59
2022/12/26 06:01:10;;;;;;;0.70;0.50;;;11.40;99.90;;;;;;5074639;28;20521;-59
2022/12/26 06:03:42;;;;;;;0.80;0.40;;;11.40;99.90;;;;;;5073524;28;20425;-59
2022/12/26 06:06:10;;;;;;;0.80;0.50;;;11.40;99.90;;;;;;5073937;28;20729;-59
2022/12/26 06:08:38;;;;;;;0.80;0.50;;;11.40;99.90;;;;;;5074282;28;20714;-59
2022/12/26 06:11:07;;;;;;;1.10;0.40;;;11.50;99.90;;;;;;5074168;28;20442;-59
2022/12/26 06:13:34;;;;;;;0.80;0.50;;;11.50;99.90;;;;;;5074496;28;20520;-59
2022/12/26 06:16:05;;;;;;;0.90;0.50;;;11.50;99.90;;;;;;5074227;28;20582;-60
2022/12/26 06:18:32;;;;;;;0.70;0.40;;;11.50;99.90;;;;;;5073366;28;20719;-60
2022/12/26 06:21:04;;;;;;;0.88;0.60;;;11.50;99.90;;;;;;5074319;28;20514;-60
2022/12/26 06:23:31;;;;;;;0.80;0.50;;;11.50;99.90;;;;;;5074010;28;20514;-60
2022/12/26 06:25:58;;;;;;;1.40;0.50;;;11.40;99.90;;;;;;5073410;28;20463;-59
2022/12/26 06:28:26;;;;;;;1.30;0.50;;;11.40;99.90;;;;;;5074167;28;20506;-59
2022/12/26 06:30:53;;;;;;;1.00;0.50;;;11.30;99.90;;;;;;5074000;28;20435;-60
2022/12/26 06:33:21;;;;;;;0.60;0.40;;;11.30;99.90;;;;;;5074705;28;20883;-60
2022/12/26 06:35:48;;;;;;;0.73;0.50;;;11.40;99.90;;;;;;5074363;28;20803;-60
2022/12/26 06:38:17;;;;;;;0.70;0.40;;;11.40;99.90;;;;;;5074329;28;20485;-59
2022/12/26 06:40:44;;;;;;;0.80;0.50;;;11.40;99.90;;;;;;5074074;28;20771;-59
2022/12/26 06:43:11;;;;;;;0.90;0.50;;;11.40;99.90;;;;;;5075309;28;20458;-59
2022/12/26 06:45:38;;;;;;;0.98;0.50;;;11.40;99.90;;;;;;5074654;28;20863;-59
2022/12/26 06:48:06;;;;;;;0.70;0.50;;;11.50;99.90;;;;;;5073877;28;20523;-59
2022/12/26 06:50:36;;;;;;;0.80;0.50;;;11.60;99.90;;;;;;5074438;28;20442;-59
2022/12/26 06:53:03;;;;;;;0.80;0.45;;;11.60;99.90;;;;;;5074168;28;20895;-59
2022/12/26 06:55:32;;;;;;;2.05;0.60;;;11.60;99.90;;;;;;5074818;28;20769;-59
2022/12/26 06:57:59;;;;;;;0.77;0.50;;;11.60;99.90;;;;;;5073978;28;20514;-59
2022/12/26 07:00:26;;;;;;;0.70;0.40;;;11.60;99.90;;;;;;5074496;28;20506;-59
2022/12/26 07:02:53;;;;;;;0.70;0.50;;;11.60;99.90;;;;;;5073055;28;20776;-60
2022/12/26 07:05:20;;;;;;;0.70;0.50;;;11.60;99.90;;;;;;5068555;28;20530;-60
2022/12/26 07:07:51;;;;;;;0.90;0.50;;;11.60;99.90;;;;;;5054221;28;20887;-60
2022/12/26 07:10:19;;;;;;;0.90;0.50;;;11.60;99.90;;;;;;5052724;28;20432;-60
2022/12/26 07:12:48;;;;;;;0.80;0.50;;;11.60;99.90;;;;;;5051999;28;20952;-59
2022/12/26 07:15:16;;;;;;;0.60;0.40;;;11.60;99.90;;;;;;5052328;28;20859;-59
2022/12/26 07:17:43;;;;;;;0.88;0.50;;;11.60;99.90;;;;;;5052333;28;20500;-59
2022/12/26 07:20:11;;;;;;;1.00;0.50;;;11.60;99.90;;;;;;5043773;28;20516;-59
2022/12/26 07:22:39;;;;;;;0.70;0.47;;;11.60;99.90;;;;;;5051679;28;20476;-59
2022/12/26 07:25:06;;;;;;;1.27;0.50;;;11.60;99.90;;;;;;5053901;28;20429;-60
2022/12/26 07:27:34;;;;;;;0.80;0.50;;;11.60;99.90;;;;;;5052340;28;20457;-59
2022/12/26 07:30:02;;;;;;;1.05;0.50;;;11.60;99.90;;;;;;5054933;28;20551;-59
2022/12/26 07:32:29;;;;;;;1.00;0.50;;;11.60;99.90;;;;;;5055368;28;20501;-59
2022/12/26 07:34:57;;;;;;;0.80;0.50;;;11.60;99.90;;;;;;5056784;28;20515;-60
2022/12/26 07:37:24;;;;;;;0.73;0.40;;;11.60;99.90;;;;;;5055575;28;20435;-59
2022/12/26 07:39:51;;;;;;;0.90;0.50;;;11.60;99.90;;;;;;5056657;28;20460;-59
2022/12/26 07:42:20;;;;;;;0.70;0.50;;;11.70;99.90;;;;;;5057739;28;20468;-59
2022/12/26 07:44:47;;;;;;;1.40;0.50;;;11.70;99.90;;;;;;5056744;28;20503;-60
2022/12/26 07:47:16;;;;;;;0.80;0.60;;;11.60;99.90;;;;;;5057101;28;20803;-60
2022/12/26 07:49:43;;;;;;;0.70;0.50;;;11.60;99.90;;;;;;5056830;28;20453;-61
2022/12/26 07:52:10;;;;;;;0.80;0.50;;;11.60;99.90;;;;;;5057646;28;20540;-60
2022/12/26 07:54:38;;;;;;;0.80;0.50;;;11.60;99.90;;;;;;5056920;28;20880;-59
2022/12/26 07:57:05;;;;;;;0.98;0.50;;;11.60;99.90;;;;;;5056116;28;20500;-59
2022/12/26 07:59:33;;;;;;;0.83;0.50;;;11.60;99.90;;;;;;5055578;28;20425;-60
2022/12/26 08:02:03;;;;;;;0.70;0.50;;;11.60;99.90;;;;;;5056180;28;20811;-60
2022/12/26 08:04:32;;;;;;;0.90;0.50;;;11.60;99.90;;;;;;5055719;28;20413;-59
2022/12/26 08:06:59;;;;;;;0.80;0.50;;;11.50;99.90;;;;;;5054875;28;20428;-59
2022/12/26 08:09:26;;;;;;;1.40;0.50;;;11.50;99.90;;;;;;5054926;28;20421;-59
2022/12/26 08:11:54;;;;;;;0.60;0.50;;;11.50;99.90;;;;;;5055659;28;20449;-59
2022/12/26 08:14:21;;;;;;;1.02;0.50;;;11.50;99.90;;;;;;5054698;28;20499;-59
2022/12/26 08:16:48;;;;;;;2.40;0.60;;;11.40;99.90;;;;;;5054874;28;20512;-59
2022/12/26 08:19:15;;;;;;;1.40;0.50;;;11.40;99.90;;;;;;5054957;28;20496;-60
2022/12/26 08:21:44;;;;;;;0.90;0.60;;;11.40;99.90;;;;;;5053746;28;20755;-60
2022/12/26 08:24:12;;;;;;;0.80;0.50;;;11.30;99.90;;;;;;5046336;28;20782;-59
2022/12/26 08:26:41;;;;;;;1.17;0.60;;;11.40;99.90;;;;;;5053756;28;20430;-59
2022/12/26 08:29:09;;;;;;;0.80;0.50;;;11.40;99.90;;;;;;5054835;28;20461;-59
2022/12/26 08:31:37;;;;;;;1.13;0.50;;;11.40;99.90;;;;;;5053854;28;20819;-59
2022/12/26 08:34:04;;;;;;;0.70;0.50;;;11.40;99.90;;;;;;5054664;28;20508;-59
2022/12/26 08:36:31;;;;;;;1.10;0.50;;;11.40;99.90;;;;;;5054141;28;20494;-60
2022/12/26 08:39:00;;;;;;;0.75;0.50;;;11.50;99.90;;;;;;5053920;28;20493;-59
2022/12/26 08:41:27;;;;;;;1.00;0.50;;;11.50;99.90;;;;;;5052714;28;20918;-59
2022/12/26 08:43:54;;;;;;;1.00;0.60;;;11.50;99.90;;;;;;5056253;28;20710;-58
2022/12/26 08:46:22;;;;;;;0.90;0.60;;;11.50;99.90;;;;;;5056211;28;20527;-58
2022/12/26 08:48:50;;;;;;;0.82;0.50;;;11.50;99.90;;;;;;5056166;28;20460;-59
2022/12/26 08:51:20;;;;;;;1.00;0.60;;;11.40;99.90;;;;;;5056317;28;20527;-59
2022/12/26 08:53:48;;;;;;;1.10;0.60;;;11.40;99.90;;;;;;5055221;28;20524;-59
2022/12/26 08:56:18;;;;;;;1.67;0.60;;;11.40;99.90;;;;;;5048038;28;20507;-60
2022/12/26 08:58:46;;;;;;;0.90;0.60;;;11.40;99.90;;;;;;5055825;28;20878;-58
2022/12/26 09:01:15;;;;;;;0.90;0.50;;;11.40;99.90;;;;;;5055619;28;20789;-59
2022/12/26 09:03:43;;;;;;;0.90;0.57;;;11.40;99.90;;;;;;5054866;28;20451;-59
2022/12/26 09:06:11;;;;;;;1.20;0.50;;;11.50;99.90;;;;;;5055321;28;20513;-59
2022/12/26 09:08:39;;;;;;;1.30;0.60;;;11.50;99.90;;;;;;5053258;28;20516;-59
2022/12/26 09:11:08;;;;;;;1.10;0.70;;;11.50;99.90;;;;;;5052847;28;20436;-58
2022/12/26 09:13:37;;;;;;;0.90;0.60;;;11.50;99.90;;;;;;5054037;28;20729;-59
2022/12/26 09:16:07;;;;;;;0.90;0.60;;;11.40;99.90;;;;;;5055206;28;20528;-59
2022/12/26 09:18:34;;;;;;;1.40;0.60;;;11.40;99.90;;;;;;5053483;28;20528;-58
2022/12/26 09:21:07;;;;;;;0.90;0.60;;;11.40;99.90;;;;;;5046492;28;20457;-59
2022/12/26 09:23:35;;;;;;;1.20;0.70;;;11.30;99.90;;;;;;5054756;28;20508;-59
2022/12/26 09:26:06;;;;;;;0.90;0.60;;;11.30;99.90;;;;;;5046849;28;20435;-59
2022/12/26 09:28:34;;;;;;;1.00;0.60;;;11.20;99.90;;;;;;5055192;28;20532;-61
2022/12/26 09:31:05;;;;;;;1.55;0.63;;;11.10;99.90;;;;;;5053978;28;20437;-58
2022/12/26 09:33:36;;;;;;;1.70;0.70;;;11.10;99.90;;;;;;5053552;28;20671;-60
2022/12/26 09:36:05;;;;;;;1.20;0.68;;;11.00;99.90;;;;;;5052734;28;20439;-59
2022/12/26 09:38:33;;;;;;;1.10;0.60;;;11.10;99.90;;;;;;5053316;28;20503;-60
2022/12/26 09:41:11;;;;;;;1.60;0.70;;;11.10;99.90;;;;;;5052905;28;20433;-60
2022/12/26 09:43:48;;;;;;;1.02;0.70;;;11.10;99.90;;;;;;5053732;28;20512;-61
2022/12/26 09:46:28;;;;;;;1.30;0.70;;;11.10;99.90;;;;;;5044951;28;20523;-59
2022/12/26 09:49:01;;;;;;;1.38;0.70;;;11.00;99.90;;;;;;5051705;28;20880;-59
2022/12/26 09:51:30;;;;;;;0.90;0.70;;;10.90;99.90;;;;;;5051250;28;20539;-59
2022/12/26 09:54:00;;;;;;;1.20;0.80;;;10.90;99.90;;;;;;5051034;28;20435;-60
2022/12/26 09:56:30;;;;;;;1.10;0.70;;;10.90;99.90;;;;;;5053135;28;21010;-59
2022/12/26 09:59:02;;;;;;;1.63;0.80;;;10.80;99.90;;;;;;5052585;28;20512;-59
2022/12/26 10:01:34;;;;;;;1.60;0.90;;;10.80;99.90;;;;;;5053069;28;20795;-59
2022/12/26 10:04:07;;;;;;;2.30;0.80;;;10.90;99.90;;;;;;5053337;28;20420;-59
2022/12/26 10:06:38;;;;;;;1.30;0.70;;;10.90;99.90;;;;;;5054469;28;20425;-59
2022/12/26 10:09:19;;;;;;;1.50;0.80;;;10.80;99.90;;;;;;5052611;28;20519;-59
2022/12/26 10:12:06;;;;;;;1.80;0.80;;;10.80;99.90;;;;;;5053730;28;20472;-59
2022/12/26 10:14:40;;;;;;;1.40;0.80;;;10.70;99.90;;;;;;5053356;28;20417;-58
2022/12/26 10:17:19;;;;;;;1.80;0.80;;;10.70;99.90;;;;;;5053032;28;20536;-58
2022/12/26 10:20:01;;;;;;;1.20;0.80;;;10.70;99.90;;;;;;5051776;28;20904;-59
2022/12/26 10:22:51;;;;;;;0.90;0.80;;;10.70;99.90;;;;;;5053938;28;20505;-58
2022/12/26 10:25:22;;;;;;;1.20;0.80;;;10.70;99.90;;;;;;5054136;28;20512;-58
2022/12/26 10:27:51;;;;;;;1.58;0.70;;;10.70;99.90;;;;;;5052602;28;20837;-58
2022/12/26 10:30:22;;;;;;;2.00;0.70;;;10.70;99.90;;;;;;5053233;28;20700;-58
2022/12/26 10:32:55;;;;;;;0.93;0.70;;;10.60;99.90;;;;;;5053549;28;20544;-58
2022/12/26 10:35:28;;;;;;;1.10;0.80;;;10.60;99.90;;;;;;5053066;28;20417;-58
2022/12/26 10:38:02;;;;;;;1.30;0.70;;;10.50;99.90;;;;;;5053401;28;20587;-61
2022/12/26 10:40:37;;;;;;;1.00;0.70;;;10.50;99.90;;;;;;5051410;28;20437;-58
2022/12/26 10:43:25;;;;;;;1.30;0.70;;;10.50;99.90;;;;;;5051229;28;20457;-58
2022/12/26 10:46:13;;;;;;;1.40;0.80;;;10.40;99.90;;;;;;5052448;28;20429;-58
2022/12/26 10:48:42;;;;;;;1.20;0.80;;;10.40;99.90;;;;;;5052671;28;20928;-59
2022/12/26 10:51:11;;;;;;;1.60;0.80;;;10.30;99.90;;;;;;5051813;28;20788;-59
2022/12/26 10:53:43;;;;;;;1.10;0.80;;;10.30;99.90;;;;;;5053432;28;20464;-59
2022/12/26 10:56:10;;;;;;;1.20;0.80;;;10.30;99.90;;;;;;5054108;28;20555;-58
2022/12/26 10:58:38;;;;;;;2.00;0.73;;;10.30;99.90;;;;;;5053586;28;20453;-59
2022/12/26 11:01:33;;;;;;;1.40;0.90;;;10.30;99.90;;;;;;5053043;28;20951;-59
2022/12/26 11:04:03;;;;;;;1.55;0.80;;;10.30;99.90;;;;;;5053468;28;20500;-59
2022/12/26 11:06:34;;;;;;;1.02;0.65;;;10.40;99.90;;;;;;5056536;28;20533;-59
2022/12/26 11:09:01;;;;;;;1.00;0.70;;;10.50;99.90;;;;;;5055155;28;20461;-60
2022/12/26 11:11:44;;;;;;;0.82;0.57;;;10.50;99.90;;;;;;5057303;28;20527;-59
2022/12/26 11:14:28;;;;;;;1.00;0.50;;;10.50;99.90;;;;;;5055215;28;20425;-59
2022/12/26 11:16:59;;;;;;;1.23;0.60;;;10.50;99.90;;;;;;5066714;28;20549;-60
2022/12/26 11:19:32;;;;;;;0.85;0.60;;;10.50;99.90;;;;;;5075971;28;20443;-59
2022/12/26 11:22:30;;;;;;;0.90;0.60;;;10.40;99.90;;;;;;5076255;28;20428;-61
2022/12/26 11:25:17;;;;;;;0.93;0.60;;;10.40;99.90;;;;;;4992991;28;20442;-61
2022/12/26 11:27:47;;;;;;;0.93;0.60;;;10.50;99.90;;;;;;5068770;28;20493;-60
2022/12/26 11:30:25;;;;;;;1.38;0.50;;;10.50;99.90;;;;;;5075644;28;20433;-60
2022/12/26 11:33:11;;;;;;;1.20;0.40;;;10.60;99.90;;;;;;5075218;28;20462;-61
2022/12/26 11:35:47;;;;;;;0.70;0.40;;;10.60;99.90;;;;;;5074544;28;20470;-61
2022/12/26 11:38:33;;;;;;;0.50;0.30;;;10.60;99.90;;;;;;5074802;28;20803;-61
2022/12/26 11:43:47;;;;;;;0.50;0.20;;;10.70;99.90;;;;;;5072721;28;20395;-61
2022/12/26 11:46:15;;;;;;;0.88;0.20;;;10.80;99.90;;;;;;5074647;28;20423;-62
2022/12/26 11:48:48;;;;;;;1.60;0.20;;;10.80;99.90;;;;;;5075418;28;20424;-59
2022/12/26 11:51:30;;;;;;;0.90;0.30;;;10.90;99.90;;;;;;5075178;28;20525;-62
2022/12/26 11:54:17;;;;;;;0.50;0.20;;;10.80;99.90;;;;;;5075180;28;20498;-61
2022/12/26 11:56:45;;;;;;;0.50;0.30;;;10.80;99.90;;;;;;5074278;28;20793;-63
2022/12/26 11:59:19;;;;;;;0.70;0.30;;;10.80;99.90;;;;;;5072632;28;20423;-61
2022/12/26 12:01:46;;;;;;;0.87;0.30;;;10.80;99.90;;;;;;5073621;28;20430;-61
2022/12/26 12:04:13;;;;;;;0.50;0.30;;;10.80;99.90;;;;;;5073080;28;20450;-61
2022/12/26 12:06:59;;;;;;;0.50;0.30;;;10.80;99.90;;;;;;5075062;28;20439;-62
2022/12/26 12:09:37;;;;;;;0.50;0.30;;;10.90;99.90;;;;;;5074794;28;20829;-61
2022/12/26 12:12:16;;;;;;;0.63;0.40;;;10.90;99.90;;;;;;5076896;28;20530;-61
2022/12/26 12:14:58;;;;;;;0.50;0.30;;;11.00;99.90;;;;;;5076284;28;20486;-61
2022/12/26 12:17:31;;;;;;;0.70;0.30;;;11.00;99.90;;;;;;5075016;28;20426;-61
2022/12/26 12:20:15;;;;;;;1.30;0.30;;;11.20;99.90;;;;;;5075739;28;20435;-61
2022/12/26 12:22:59;;;;;;;0.90;0.30;;;11.20;99.90;;;;;;5076961;28;20454;-61
2022/12/26 12:25:40;;;;;;;0.60;0.30;;;11.30;99.90;;;;;;5075933;28;20451;-61
2022/12/26 12:28:31;;;;;;;0.40;0.20;;;11.30;99.90;;;;;;5076258;28;20423;-61
2022/12/26 12:31:05;;;;;;;0.90;0.30;;;11.30;99.90;;;;;;5072759;28;20533;-61
2022/12/26 12:33:44;;;;;;;0.50;0.20;;;11.30;99.90;;;;;;5074548;28;20509;-61
2022/12/26 12:36:16;;;;;;;0.40;0.20;;;11.20;99.90;;;;;;5075617;28;20427;-61
2022/12/26 12:39:00;;;;;;;0.40;0.20;;;11.20;99.90;;;;;;5073374;28;20419;-62
2022/12/26 12:41:49;;;;;;;0.50;0.20;;;11.30;99.90;;;;;;5073349;28;20489;-61
2022/12/26 12:44:22;;;;;;;0.40;0.20;;;11.30;99.90;;;;;;5074893;28;20760;-61
2022/12/26 12:47:01;;;;;;;0.73;0.20;;;11.30;99.90;;;;;;5073860;28;20553;-61
2022/12/26 12:49:46;;;;;;;0.50;0.20;;;11.40;99.90;;;;;;5071877;28;20633;-61
2022/12/26 12:52:31;;;;;;;0.40;0.20;;;11.40;99.90;;;;;;5073133;28;20851;-62
2022/12/26 12:55:38;;;;;;;0.40;0.20;;;11.40;99.90;;;;;;5073465;28;20813;-62
2022/12/26 12:58:15;;;;;;;0.70;0.20;;;11.30;99.90;;;;;;5026087;28;20934;-61
2022/12/26 13:00:46;;;;;;;1.10;0.20;;;11.40;99.90;;;;;;5074710;28;20449;-60
2022/12/26 13:03:22;;;;;;;0.50;0.30;;;11.40;99.90;;;;;;5072736;28;20424;-61
2022/12/26 13:06:04;;;;;;;0.40;0.20;;;11.40;99.90;;;;;;5074373;28;20546;-61
2022/12/26 13:08:36;;;;;;;0.40;0.20;;;11.40;99.90;;;;;;5074320;28;20506;-61
2022/12/26 13:11:10;;;;;;;0.40;0.20;;;11.40;99.90;;;;;;5073685;28;20786;-61
2022/12/26 13:13:42;;;;;;;0.40;0.20;;;11.40;99.90;;;;;;5074226;28;20478;-61
2022/12/26 13:16:13;;;;;;;0.50;0.20;;;11.30;99.90;;;;;;5064330;28;20750;-61
2022/12/26 13:18:50;;;;;;;0.40;0.20;;;11.30;99.90;;;;;;5074205;28;20494;-61
2022/12/26 13:21:18;;;;;;;0.40;0.20;;;11.30;99.90;;;;;;5074890;28;20716;-60
2022/12/26 13:26:37;;;;;;;0.40;0.20;;;11.30;99.90;;;;;;5073776;28;20415;-61
2022/12/26 13:29:16;;;;;;;0.30;0.10;;;11.30;99.90;;;;;;5073810;28;20804;-61
2022/12/26 13:31:44;;;;;;;0.50;0.20;;;11.30;99.90;;;;;;5074468;28;20918;-61
2022/12/26 13:34:17;;;;;;;0.50;0.20;;;11.20;99.90;;;;;;5072922;28;20475;-61
2022/12/26 13:36:47;;;;;;;0.40;0.20;;;11.20;99.90;;;;;;5074946;28;20459;-60
2022/12/26 13:39:36;;;;;;;0.47;0.20;;;11.30;99.90;;;;;;5074670;28;20899;-60
2022/12/26 13:45:57;;;;;;;0.40;0.20;;;11.20;99.90;;;;;;5072504;28;20735;-60
2022/12/26 13:48:56;;;;;;;0.30;0.20;;;11.20;99.90;;;;;;5073917;28;20530;-60
2022/12/26 13:51:51;;;;;;;0.40;0.20;;;11.20;99.90;;;;;;5074453;28;20427;-61
2022/12/26 13:54:22;;;;;;;0.40;0.20;;;11.20;99.90;;;;;;5066806;28;20474;-61
2022/12/26 13:57:38;;;;;;;0.40;0.20;;;11.20;99.90;;;;;;5073095;28;20462;-61
2022/12/26 14:00:19;;;;;;;0.40;0.20;;;11.20;99.90;;;;;;5064848;28;20439;-61
2022/12/26 14:03:19;;;;;;;0.40;0.20;;;11.20;99.90;;;;;;5073091;28;20416;-60
2022/12/26 14:06:18;;;;;;;0.40;0.20;;;11.10;99.90;;;;;;5052309;28;20435;-61
2022/12/26 14:09:01;;;;;;;0.50;0.20;;;11.20;99.90;;;;;;5073294;28;20837;-61
2022/12/26 14:11:42;;;;;;;0.45;0.25;;;11.20;99.90;;;;;;5070896;28;20905;-61
2022/12/26 14:14:21;;;;;;;0.40;0.20;;;11.10;99.90;;;;;;5071367;28;20539;-61
2022/12/26 14:16:56;;;;;;;0.40;0.20;;;11.00;99.90;;;;;;5072593;28;20902;-61
2022/12/26 14:19:38;;;;;;;0.63;0.30;;;11.10;99.90;;;;;;5072208;28;20498;-61
2022/12/26 14:22:15;;;;;;;0.50;0.20;;;11.10;99.90;;;;;;5071737;28;20806;-61
2022/12/26 14:24:55;;;;;;;0.57;0.30;;;11.00;99.90;;;;;;5071927;28;20878;-61
2022/12/26 14:27:32;;;;;;;0.50;0.30;;;11.00;99.90;;;;;;5072858;28;20477;-62
2022/12/26 14:30:17;;;;;;;0.80;0.20;;;11.00;99.90;;;;;;5072027;28;20727;-61
2022/12/26 14:33:11;;;;;;;0.55;0.30;;;11.00;99.90;;;;;;5077482;28;20425;-61
2022/12/26 14:35:46;;;;;;;0.40;0.20;;;11.00;99.90;;;;;;5091902;28;20425;-59
2022/12/26 14:38:25;;;;;;;0.47;0.30;;;11.00;99.90;;;;;;5090837;28;20417;-61
2022/12/26 14:41:01;;;;;;;0.50;0.30;;;11.00;99.90;;;;;;5092125;28;20438;-61
2022/12/26 14:43:35;;;;;;;0.50;0.30;;;11.00;99.90;;;;;;5091074;28;20475;-61
2022/12/26 14:46:04;;;;;;;0.90;0.30;;;11.00;99.90;;;;;;5092965;28;20505;-61
2022/12/26 14:48:49;;;;;;;0.50;0.30;;;11.00;99.90;;;;;;5093309;28;20508;-61
2022/12/26 14:51:36;;;;;;;0.50;0.30;;;11.10;99.90;;;;;;5092814;28;20453;-61
2022/12/26 14:54:20;;;;;;;0.40;0.20;;;11.00;99.90;;;;;;5092101;28;20944;-61
2022/12/26 14:56:51;;;;;;;0.93;0.30;;;10.90;99.90;;;;;;5093098;28;20433;-61
2022/12/26 14:59:28;;;;;;;0.60;0.30;;;10.90;99.90;;;;;;5092381;28;20418;-61
2022/12/26 15:02:09;;;;;;;0.40;0.20;;;10.90;99.90;;;;;;5093472;28;20517;-61
2022/12/26 15:05:00;;;;;;;0.50;0.23;;;10.90;99.90;;;;;;5092060;28;20792;-61
2022/12/26 15:08:06;;;;;;;0.50;0.30;;;10.90;99.90;;;;;;5092973;28;20504;-60
2022/12/26 15:10:59;;;;;;;0.40;0.20;;;10.90;99.90;;;;;;5085734;28;20520;-59
2022/12/26 15:14:11;;;;;;;0.60;0.30;;;10.80;99.90;;;;;;5093372;28;20508;-62
2022/12/26 15:16:52;;;;;;;0.57;0.30;;;10.80;99.90;;;;;;5065517;28;20840;-60
2022/12/26 15:19:56;;;;;;;0.50;0.30;;;10.70;99.90;;;;;;5092027;28;20464;-59
2022/12/26 15:22:54;;;;;;;0.50;0.30;;;10.70;99.90;;;;;;5093565;28;20509;-60
2022/12/26 15:25:50;;;;;;;0.90;0.30;;;10.80;99.90;;;;;;5092198;28;20504;-59
2022/12/26 15:28:43;;;;;;;0.60;0.30;;;10.70;99.90;;;;;;5092216;28;20501;-59
2022/12/26 15:31:30;;;;;;;0.50;0.30;;;10.70;99.90;;;;;;5092910;28;20500;-61